Terminal Aerodrome Forecast
Issued by NWS Duluth, MN

Home | Current Version | Previous Version | Text Only | Print | Product List | Glossary On
Versions: 1 2 3 4 5 6 7 8 9 10 11 12 13 14 15 16
000
FTUS43 KDLH 231137
TAFINL
TAF
KINL 231137Z 2312/2412 12004KT P6SM BKN250
     FM231400 13008KT P6SM SCT110 BKN200
     FM231900 14010G17KT P6SM VCSH SCT090 BKN120
     FM232200 16006KT 5SM -TSRA SCT015CB BKN090
     FM240300 18005KT P6SM VCSH BKN025
     FM240800 27007KT P6SM SCT025 BKN050=

USA.gov is the U.S. government's official web portal to all federal, state and local government web resources and services.